RYR19KL GCLP-LEVC
Flight info
| Callsign | RYR19KL |
|---|---|
| Flight time | 2h 30m |
| Altitude | 36000 |
| Route | KORAL UG5 SONSO DCT NIRAL UN871 OSDAM UM985 BARPA DCT XAVIR DCT PIMOS DCT RIXUR DCT PEPAS DCT ARPEX DCT KOSEL DCT BUDIT DCT ETURA DCT XEBAR DCT POBOS DCT ASTRO |
| Aircraft | B738/M-SDE2E3FGHIRWXY/LB1 |
Departure
| Time | 2026-04-28 12:21 |
|---|---|
| Airport | Gran Canaria Airport (GCLP) |
Arrival
| Time | 2026-04-28 14:52 |
|---|---|
| Airport | Valencia Airport (LEVC) |
| Time | Latitude | Longitude | Altitude | Speed | Heading |
|---|---|---|---|---|---|
| 2026-04-28 12:01 | 27.93941 | -15.38786 | 84 ft | 0 kts | 291° |
| 2026-04-28 12:11 | 27.93941 | -15.38785 | 84 ft | 1 kts | 291° |
| 2026-04-28 12:11 | 27.93933 | -15.38759 | 88 ft | 4 kts | 284° |
| 2026-04-28 12:11 | 27.93927 | -15.38730 | 87 ft | 4 kts | 273° |
| 2026-04-28 12:12 | 27.93929 | -15.38700 | 84 ft | 4 kts | 245° |
| 2026-04-28 12:12 | 27.93941 | -15.38684 | 83 ft | 1 kts | 201° |
| 2026-04-28 12:12 | 27.93945 | -15.38682 | 83 ft | 0 kts | 201° |
| 2026-04-28 12:14 | 27.93944 | -15.38683 | 84 ft | 1 kts | 201° |
| 2026-04-28 12:14 | 27.93917 | -15.38694 | 87 ft | 8 kts | 200° |
| 2026-04-28 12:14 | 27.93859 | -15.38720 | 86 ft | 10 kts | 202° |
| 2026-04-28 12:14 | 27.93797 | -15.38747 | 86 ft | 9 kts | 201° |
| 2026-04-28 12:15 | 27.93738 | -15.38773 | 84 ft | 9 kts | 201° |
| 2026-04-28 12:15 | 27.93677 | -15.38800 | 86 ft | 10 kts | 201° |
| 2026-04-28 12:15 | 27.93610 | -15.38829 | 86 ft | 11 kts | 201° |
| 2026-04-28 12:15 | 27.93533 | -15.38863 | 82 ft | 12 kts | 199° |
| 2026-04-28 12:16 | 27.93449 | -15.38859 | 80 ft | 13 kts | 137° |
| 2026-04-28 12:16 | 27.93403 | -15.38766 | 71 ft | 9 kts | 155° |
| 2026-04-28 12:16 | 27.93330 | -15.38787 | 67 ft | 13 kts | 201° |
| 2026-04-28 12:16 | 27.93237 | -15.38828 | 67 ft | 15 kts | 200° |
| 2026-04-28 12:17 | 27.93144 | -15.38877 | 69 ft | 14 kts | 207° |
| 2026-04-28 12:17 | 27.93052 | -15.38918 | 75 ft | 14 kts | 201° |
| 2026-04-28 12:17 | 27.92964 | -15.38957 | 74 ft | 14 kts | 201° |
| 2026-04-28 12:17 | 27.92876 | -15.38996 | 81 ft | 13 kts | 202° |
| 2026-04-28 12:18 | 27.92790 | -15.39034 | 85 ft | 13 kts | 201° |
| 2026-04-28 12:18 | 27.92707 | -15.39070 | 86 ft | 13 kts | 202° |
| 2026-04-28 12:18 | 27.92625 | -15.39106 | 89 ft | 13 kts | 200° |
| 2026-04-28 12:18 | 27.92543 | -15.39142 | 91 ft | 13 kts | 202° |
| 2026-04-28 12:19 | 27.92459 | -15.39180 | 94 ft | 14 kts | 201° |
| 2026-04-28 12:19 | 27.92344 | -15.39231 | 97 ft | 21 kts | 201° |
| 2026-04-28 12:19 | 27.92184 | -15.39300 | 99 ft | 27 kts | 197° |
| 2026-04-28 12:19 | 27.91992 | -15.39295 | 89 ft | 25 kts | 176° |
| 2026-04-28 12:20 | 27.91894 | -15.39210 | 88 ft | 17 kts | 111° |
| 2026-04-28 12:20 | 27.91850 | -15.39075 | 78 ft | 19 kts | 97° |
| 2026-04-28 12:20 | 27.91937 | -15.38984 | 68 ft | 19 kts | 21° |
| 2026-04-28 12:20 | 27.92213 | -15.38862 | 57 ft | 80 kts | 21° |
| 2026-04-28 12:21 | 27.92968 | -15.38527 | 46 ft | 151 kts | 21° |
| 2026-04-28 12:21 | 27.94052 | -15.38070 | 527 ft | 175 kts | 20° |
| 2026-04-28 12:21 | 27.95205 | -15.37562 | 1459 ft | 181 kts | 22° |
| 2026-04-28 12:21 | 27.96444 | -15.36952 | 1844 ft | 209 kts | 24° |
| 2026-04-28 12:22 | 27.97824 | -15.36261 | 2294 ft | 222 kts | 21° |
| 2026-04-28 12:22 | 27.99269 | -15.35541 | 2824 ft | 233 kts | 22° |
| 2026-04-28 12:22 | 28.00822 | -15.34786 | 3270 ft | 250 kts | 18° |
| 2026-04-28 12:22 | 28.02483 | -15.34134 | 3871 ft | 255 kts | 17° |
| 2026-04-28 12:23 | 28.04189 | -15.33487 | 4405 ft | 261 kts | 17° |
| 2026-04-28 12:23 | 28.05867 | -15.32719 | 5306 ft | 265 kts | 33° |
| 2026-04-28 12:23 | 28.07117 | -15.31174 | 6193 ft | 269 kts | 53° |
| 2026-04-28 12:23 | 28.08179 | -15.29416 | 7010 ft | 273 kts | 54° |
| 2026-04-28 12:24 | 28.09252 | -15.27621 | 7760 ft | 278 kts | 54° |
| 2026-04-28 12:24 | 28.10346 | -15.25797 | 8516 ft | 282 kts | 54° |
| 2026-04-28 12:24 | 28.11463 | -15.23947 | 9240 ft | 286 kts | 54° |
| 2026-04-28 12:24 | 28.12600 | -15.22079 | 9952 ft | 290 kts | 54° |
| 2026-04-28 12:25 | 28.13768 | -15.20173 | 10453 ft | 303 kts | 53° |
| 2026-04-28 12:25 | 28.15018 | -15.18141 | 10611 ft | 325 kts | 53° |
| 2026-04-28 12:25 | 28.16327 | -15.16018 | 10959 ft | 339 kts | 53° |
| 2026-04-28 12:25 | 28.17690 | -15.13807 | 11522 ft | 345 kts | 53° |
| 2026-04-28 12:26 | 28.19072 | -15.11568 | 12152 ft | 348 kts | 53° |
| 2026-04-28 12:26 | 28.20470 | -15.09305 | 12735 ft | 353 kts | 53° |
| 2026-04-28 12:26 | 28.21882 | -15.07020 | 13325 ft | 356 kts | 53° |
| 2026-04-28 12:26 | 28.23308 | -15.04712 | 13889 ft | 359 kts | 53° |
| 2026-04-28 12:27 | 28.24749 | -15.02378 | 14420 ft | 363 kts | 53° |
| 2026-04-28 12:27 | 28.26205 | -15.00020 | 14966 ft | 366 kts | 53° |
| 2026-04-28 12:27 | 28.27669 | -14.97649 | 15472 ft | 369 kts | 53° |
| 2026-04-28 12:27 | 28.29150 | -14.95249 | 15977 ft | 372 kts | 53° |
| 2026-04-28 12:28 | 28.30641 | -14.92833 | 16448 ft | 375 kts | 53° |
| 2026-04-28 12:28 | 28.32143 | -14.90396 | 16904 ft | 378 kts | 53° |
| 2026-04-28 12:28 | 28.33656 | -14.87940 | 17341 ft | 381 kts | 53° |
| 2026-04-28 12:28 | 28.35181 | -14.85464 | 17781 ft | 384 kts | 53° |
| 2026-04-28 12:29 | 28.38265 | -14.80450 | 18577 ft | 390 kts | 53° |
| 2026-04-28 12:29 | 28.39821 | -14.77919 | 18947 ft | 393 kts | 53° |
| 2026-04-28 12:29 | 28.41390 | -14.75364 | 19302 ft | 396 kts | 53° |
| 2026-04-28 12:30 | 28.42971 | -14.72788 | 19667 ft | 398 kts | 53° |
| 2026-04-28 12:30 | 28.44538 | -14.70235 | 20005 ft | 401 kts | 52° |
| 2026-04-28 12:30 | 28.46140 | -14.67622 | 20331 ft | 404 kts | 52° |
| 2026-04-28 12:30 | 28.47751 | -14.64992 | 20639 ft | 407 kts | 52° |
| 2026-04-28 12:31 | 28.49374 | -14.62343 | 20940 ft | 410 kts | 52° |
| 2026-04-28 12:31 | 28.51004 | -14.59680 | 21260 ft | 412 kts | 52° |
| 2026-04-28 12:31 | 28.52642 | -14.57001 | 21566 ft | 414 kts | 52° |
| 2026-04-28 12:31 | 28.54290 | -14.54306 | 21846 ft | 416 kts | 52° |
| 2026-04-28 12:32 | 28.55947 | -14.51592 | 22133 ft | 419 kts | 52° |
| 2026-04-28 12:32 | 28.57612 | -14.48865 | 22385 ft | 421 kts | 52° |
| 2026-04-28 12:32 | 28.59287 | -14.46120 | 22669 ft | 423 kts | 52° |
| 2026-04-28 12:32 | 28.60967 | -14.43363 | 22925 ft | 425 kts | 52° |
| 2026-04-28 12:33 | 28.62657 | -14.40591 | 23168 ft | 427 kts | 52° |
| 2026-04-28 12:33 | 28.64352 | -14.37807 | 23413 ft | 429 kts | 52° |
| 2026-04-28 12:33 | 28.66059 | -14.35004 | 23643 ft | 431 kts | 52° |
| 2026-04-28 12:33 | 28.67768 | -14.32194 | 23884 ft | 433 kts | 52° |
| 2026-04-28 12:34 | 28.69485 | -14.29368 | 24100 ft | 435 kts | 52° |
| 2026-04-28 12:34 | 28.71209 | -14.26528 | 24294 ft | 437 kts | 52° |
| 2026-04-28 12:34 | 28.72914 | -14.23719 | 24553 ft | 437 kts | 52° |
| 2026-04-28 12:34 | 28.74642 | -14.20867 | 24789 ft | 438 kts | 52° |
| 2026-04-28 12:35 | 28.76376 | -14.18006 | 24996 ft | 440 kts | 52° |
| 2026-04-28 12:35 | 28.78116 | -14.15132 | 25190 ft | 441 kts | 52° |
| 2026-04-28 12:35 | 28.79864 | -14.12246 | 25354 ft | 443 kts | 52° |
| 2026-04-28 12:35 | 28.81613 | -14.09354 | 25567 ft | 444 kts | 52° |
| 2026-04-28 12:36 | 28.83365 | -14.06454 | 25760 ft | 444 kts | 52° |
| 2026-04-28 12:36 | 28.85122 | -14.03542 | 25906 ft | 446 kts | 52° |
| 2026-04-28 12:36 | 28.86883 | -14.00624 | 26085 ft | 447 kts | 52° |
| 2026-04-28 12:36 | 28.88645 | -13.97702 | 26257 ft | 448 kts | 52° |
| 2026-04-28 12:37 | 28.90416 | -13.94765 | 26338 ft | 451 kts | 52° |
| 2026-04-28 12:37 | 28.92200 | -13.91803 | 26441 ft | 454 kts | 52° |
| 2026-04-28 12:37 | 28.93990 | -13.88829 | 26626 ft | 454 kts | 52° |
| 2026-04-28 12:37 | 28.95777 | -13.85857 | 26827 ft | 454 kts | 52° |
| 2026-04-28 12:38 | 28.97564 | -13.82882 | 26991 ft | 455 kts | 52° |
| 2026-04-28 12:38 | 28.99359 | -13.79894 | 27129 ft | 456 kts | 52° |
| 2026-04-28 12:38 | 29.01153 | -13.76904 | 27260 ft | 458 kts | 52° |
| 2026-04-28 12:38 | 29.02954 | -13.73901 | 27398 ft | 458 kts | 52° |
| 2026-04-28 12:39 | 29.04755 | -13.70891 | 27535 ft | 459 kts | 52° |
| 2026-04-28 12:39 | 29.06561 | -13.67876 | 27655 ft | 461 kts | 52° |
| 2026-04-28 12:39 | 29.08374 | -13.64848 | 27774 ft | 462 kts | 52° |
| 2026-04-28 12:39 | 29.10189 | -13.61813 | 27932 ft | 462 kts | 52° |
| 2026-04-28 12:40 | 29.12002 | -13.58779 | 28062 ft | 463 kts | 52° |
| 2026-04-28 12:40 | 29.13821 | -13.55733 | 28169 ft | 464 kts | 52° |
| 2026-04-28 12:40 | 29.15642 | -13.52681 | 28247 ft | 465 kts | 52° |
| 2026-04-28 12:40 | 29.17473 | -13.49622 | 28370 ft | 466 kts | 51° |
| 2026-04-28 12:41 | 29.19347 | -13.46604 | 28504 ft | 465 kts | 52° |
| 2026-04-28 12:41 | 29.23060 | -13.40508 | 28635 ft | 469 kts | 51° |
| 2026-04-28 12:42 | 29.26802 | -13.34382 | 28841 ft | 470 kts | 51° |
| 2026-04-28 12:42 | 29.30530 | -13.28276 | 28985 ft | 472 kts | 51° |
| 2026-04-28 12:43 | 29.34316 | -13.22060 | 29163 ft | 473 kts | 51° |
| 2026-04-28 12:43 | 29.38064 | -13.15895 | 29298 ft | 475 kts | 52° |
| 2026-04-28 12:44 | 29.41846 | -13.09663 | 29434 ft | 477 kts | 52° |
| 2026-04-28 12:44 | 29.45642 | -13.03402 | 29548 ft | 479 kts | 52° |
| 2026-04-28 12:45 | 29.49451 | -12.97105 | 29660 ft | 481 kts | 52° |
| 2026-04-28 12:45 | 29.53275 | -12.90777 | 29798 ft | 483 kts | 52° |
| 2026-04-28 12:46 | 29.57104 | -12.84431 | 29899 ft | 485 kts | 52° |
| 2026-04-28 12:46 | 29.60951 | -12.78043 | 29996 ft | 487 kts | 52° |
| 2026-04-28 12:47 | 29.64803 | -12.71638 | 30085 ft | 488 kts | 52° |
| 2026-04-28 12:47 | 29.68672 | -12.65191 | 30132 ft | 491 kts | 52° |
| 2026-04-28 12:48 | 29.72559 | -12.58708 | 30212 ft | 493 kts | 52° |
| 2026-04-28 12:48 | 29.76433 | -12.52206 | 30308 ft | 494 kts | 52° |
| 2026-04-28 12:49 | 29.80307 | -12.45659 | 30379 ft | 495 kts | 53° |
| 2026-04-28 12:49 | 29.84189 | -12.39089 | 30433 ft | 497 kts | 53° |
| 2026-04-28 12:50 | 29.88058 | -12.32537 | 30524 ft | 498 kts | 53° |
| 2026-04-28 12:50 | 29.91947 | -12.25941 | 30641 ft | 498 kts | 53° |
| 2026-04-28 12:51 | 29.95842 | -12.19325 | 30719 ft | 499 kts | 53° |
| 2026-04-28 12:51 | 29.99730 | -12.12707 | 30896 ft | 497 kts | 53° |
| 2026-04-28 12:52 | 30.04154 | -12.06663 | 30952 ft | 491 kts | 40° |
| 2026-04-28 12:52 | 30.09101 | -12.01232 | 31074 ft | 490 kts | 39° |
| 2026-04-28 12:53 | 30.14054 | -11.95806 | 31153 ft | 491 kts | 39° |
| 2026-04-28 12:53 | 30.18966 | -11.90338 | 31258 ft | 490 kts | 40° |
| 2026-04-28 12:54 | 30.23824 | -11.84882 | 31444 ft | 489 kts | 40° |
| 2026-04-28 12:54 | 30.28695 | -11.79400 | 31552 ft | 489 kts | 40° |
| 2026-04-28 12:55 | 30.33561 | -11.73925 | 31641 ft | 487 kts | 40° |
| 2026-04-28 12:55 | 30.38423 | -11.68447 | 31774 ft | 487 kts | 40° |
| 2026-04-28 12:56 | 30.43257 | -11.62979 | 31913 ft | 485 kts | 40° |
| 2026-04-28 12:56 | 30.48090 | -11.57510 | 31988 ft | 485 kts | 41° |
| 2026-04-28 12:57 | 30.52909 | -11.52053 | 32198 ft | 483 kts | 41° |
| 2026-04-28 12:57 | 30.57704 | -11.46616 | 32320 ft | 482 kts | 41° |
| 2026-04-28 12:58 | 30.62494 | -11.41177 | 32440 ft | 481 kts | 41° |
| 2026-04-28 12:58 | 30.66467 | -11.36661 | 32565 ft | 480 kts | 41° |
| 2026-04-28 12:59 | 30.72008 | -11.30350 | 32658 ft | 480 kts | 41° |
| 2026-04-28 12:59 | 30.76774 | -11.24913 | 32776 ft | 479 kts | 41° |
| 2026-04-28 13:00 | 30.81518 | -11.19492 | 32906 ft | 478 kts | 41° |
| 2026-04-28 13:00 | 30.85459 | -11.14983 | 32962 ft | 478 kts | 41° |
| 2026-04-28 13:01 | 30.90186 | -11.09570 | 33075 ft | 477 kts | 41° |
| 2026-04-28 13:01 | 30.94917 | -11.04142 | 33096 ft | 478 kts | 41° |
| 2026-04-28 13:02 | 30.99642 | -10.98713 | 33250 ft | 476 kts | 41° |
| 2026-04-28 13:02 | 31.04349 | -10.93297 | 33342 ft | 475 kts | 41° |
| 2026-04-28 13:03 | 31.09051 | -10.87879 | 33403 ft | 475 kts | 42° |
| 2026-04-28 13:03 | 31.13749 | -10.82458 | 33479 ft | 475 kts | 42° |
| 2026-04-28 13:04 | 31.18438 | -10.77039 | 33584 ft | 473 kts | 42° |
| 2026-04-28 13:04 | 31.23121 | -10.71620 | 33613 ft | 474 kts | 42° |
| 2026-04-28 13:05 | 31.27805 | -10.66189 | 33723 ft | 473 kts | 42° |
| 2026-04-28 13:05 | 31.32467 | -10.60777 | 33822 ft | 472 kts | 42° |
| 2026-04-28 13:06 | 31.37129 | -10.55358 | 33887 ft | 472 kts | 42° |
| 2026-04-28 13:06 | 31.41749 | -10.49980 | 33964 ft | 472 kts | 42° |
| 2026-04-28 13:07 | 31.46396 | -10.44563 | 34046 ft | 471 kts | 43° |
| 2026-04-28 13:07 | 31.51029 | -10.39154 | 34141 ft | 470 kts | 43° |
| 2026-04-28 13:08 | 31.55660 | -10.33737 | 34174 ft | 470 kts | 43° |
| 2026-04-28 13:08 | 31.60281 | -10.28327 | 34270 ft | 469 kts | 43° |
| 2026-04-28 13:09 | 31.64905 | -10.22903 | 34316 ft | 470 kts | 43° |
| 2026-04-28 13:09 | 31.69521 | -10.17481 | 34383 ft | 469 kts | 43° |
| 2026-04-28 13:10 | 31.74125 | -10.12063 | 34444 ft | 469 kts | 43° |
| 2026-04-28 13:10 | 31.78731 | -10.06638 | 34480 ft | 469 kts | 43° |
| 2026-04-28 13:11 | 31.83330 | -10.01210 | 34602 ft | 467 kts | 43° |
| 2026-04-28 13:11 | 31.87919 | -9.95786 | 34622 ft | 468 kts | 43° |
| 2026-04-28 13:12 | 31.92477 | -9.90391 | 34677 ft | 468 kts | 43° |
| 2026-04-28 13:12 | 31.97070 | -9.84953 | 34688 ft | 469 kts | 43° |
| 2026-04-28 13:13 | 32.01658 | -9.79506 | 34736 ft | 468 kts | 43° |
| 2026-04-28 13:13 | 32.06244 | -9.74053 | 34757 ft | 468 kts | 43° |
| 2026-04-28 13:14 | 32.10833 | -9.68588 | 34792 ft | 468 kts | 43° |
| 2026-04-28 13:14 | 32.15404 | -9.63137 | 34922 ft | 467 kts | 44° |
| 2026-04-28 13:15 | 32.19972 | -9.57678 | 34923 ft | 468 kts | 44° |
| 2026-04-28 13:15 | 32.24547 | -9.52212 | 34942 ft | 468 kts | 44° |
| 2026-04-28 13:16 | 32.29116 | -9.46740 | 35014 ft | 467 kts | 44° |
| 2026-04-28 13:16 | 32.33677 | -9.41266 | 35049 ft | 467 kts | 44° |
| 2026-04-28 13:17 | 32.38207 | -9.35822 | 35061 ft | 468 kts | 44° |
| 2026-04-28 13:17 | 32.42766 | -9.30334 | 35083 ft | 468 kts | 44° |
| 2026-04-28 13:18 | 32.47327 | -9.24838 | 35118 ft | 468 kts | 44° |
| 2026-04-28 13:18 | 32.51883 | -9.19342 | 35200 ft | 466 kts | 44° |
| 2026-04-28 13:19 | 32.56429 | -9.13846 | 35222 ft | 467 kts | 44° |
| 2026-04-28 13:19 | 32.60972 | -9.08345 | 35292 ft | 467 kts | 44° |
| 2026-04-28 13:20 | 32.65517 | -9.02833 | 35311 ft | 467 kts | 44° |
| 2026-04-28 13:20 | 32.70058 | -8.97316 | 35344 ft | 467 kts | 45° |
| 2026-04-28 13:21 | 32.74593 | -8.91801 | 35383 ft | 466 kts | 45° |
| 2026-04-28 13:21 | 32.79117 | -8.86289 | 35429 ft | 465 kts | 45° |
| 2026-04-28 13:22 | 32.83608 | -8.80811 | 35435 ft | 466 kts | 45° |
| 2026-04-28 13:22 | 32.88130 | -8.75283 | 35447 ft | 466 kts | 45° |
| 2026-04-28 13:23 | 32.92638 | -8.69762 | 35505 ft | 465 kts | 45° |
| 2026-04-28 13:23 | 32.97146 | -8.64239 | 35521 ft | 465 kts | 45° |
| 2026-04-28 13:24 | 33.01647 | -8.58712 | 35595 ft | 464 kts | 45° |
| 2026-04-28 13:24 | 33.06138 | -8.53189 | 35611 ft | 464 kts | 45° |
| 2026-04-28 13:25 | 33.10631 | -8.47654 | 35651 ft | 464 kts | 45° |
| 2026-04-28 13:25 | 33.15107 | -8.42130 | 35737 ft | 462 kts | 45° |
| 2026-04-28 13:25 | 33.17340 | -8.39374 | 35856 ft | 461 kts | 45° |
| 2026-04-28 13:26 | 33.19636 | -8.36700 | 35906 ft | 463 kts | 39° |
| 2026-04-28 13:26 | 33.24935 | -8.32413 | 35922 ft | 464 kts | 31° |
| 2026-04-28 13:27 | 33.30444 | -8.28373 | 35917 ft | 465 kts | 31° |
| 2026-04-28 13:27 | 33.35943 | -8.24307 | 35916 ft | 465 kts | 31° |
| 2026-04-28 13:28 | 33.41414 | -8.20198 | 35912 ft | 464 kts | 32° |
| 2026-04-28 13:28 | 33.46861 | -8.16078 | 35915 ft | 462 kts | 32° |
| 2026-04-28 13:29 | 33.52285 | -8.11967 | 35912 ft | 460 kts | 32° |
| 2026-04-28 13:29 | 33.57684 | -8.07867 | 35914 ft | 458 kts | 32° |
| 2026-04-28 13:30 | 33.63055 | -8.03784 | 35918 ft | 456 kts | 32° |
| 2026-04-28 13:30 | 33.68411 | -7.99711 | 35914 ft | 455 kts | 32° |
| 2026-04-28 13:31 | 33.76384 | -7.93635 | 35903 ft | 454 kts | 32° |
| 2026-04-28 13:31 | 33.81712 | -7.89565 | 35908 ft | 453 kts | 33° |
| 2026-04-28 13:32 | 33.87032 | -7.85497 | 35910 ft | 453 kts | 33° |
| 2026-04-28 13:32 | 33.92354 | -7.81421 | 35907 ft | 454 kts | 33° |
| 2026-04-28 13:33 | 33.97684 | -7.77332 | 35908 ft | 455 kts | 33° |
| 2026-04-28 13:33 | 34.03023 | -7.73230 | 35915 ft | 455 kts | 33° |
| 2026-04-28 13:34 | 34.08364 | -7.69120 | 35910 ft | 456 kts | 33° |
| 2026-04-28 13:34 | 34.13684 | -7.65019 | 35909 ft | 457 kts | 33° |
| 2026-04-28 13:35 | 34.19048 | -7.60877 | 35909 ft | 458 kts | 33° |
| 2026-04-28 13:35 | 34.24416 | -7.56727 | 35908 ft | 458 kts | 33° |
| 2026-04-28 13:36 | 34.29782 | -7.52573 | 35907 ft | 458 kts | 33° |
| 2026-04-28 13:36 | 34.35140 | -7.48418 | 35903 ft | 457 kts | 33° |
| 2026-04-28 13:37 | 34.40491 | -7.44263 | 35908 ft | 457 kts | 33° |
| 2026-04-28 13:37 | 34.45837 | -7.40105 | 35897 ft | 457 kts | 32° |
| 2026-04-28 13:38 | 34.51174 | -7.35947 | 35900 ft | 456 kts | 32° |
| 2026-04-28 13:38 | 34.56468 | -7.31815 | 35896 ft | 455 kts | 32° |
| 2026-04-28 13:39 | 34.61790 | -7.27657 | 35897 ft | 454 kts | 32° |
| 2026-04-28 13:39 | 34.67098 | -7.23503 | 35896 ft | 453 kts | 32° |
| 2026-04-28 13:40 | 34.72396 | -7.19351 | 35898 ft | 453 kts | 32° |
| 2026-04-28 13:40 | 34.77688 | -7.15197 | 35899 ft | 452 kts | 32° |
| 2026-04-28 13:41 | 34.82972 | -7.11042 | 35898 ft | 452 kts | 32° |
| 2026-04-28 13:41 | 34.88245 | -7.06892 | 35896 ft | 451 kts | 32° |
| 2026-04-28 13:42 | 34.93511 | -7.02737 | 35901 ft | 451 kts | 32° |
| 2026-04-28 13:42 | 34.98775 | -6.98579 | 35896 ft | 451 kts | 32° |
| 2026-04-28 13:43 | 35.04035 | -6.94416 | 35899 ft | 450 kts | 32° |
| 2026-04-28 13:43 | 35.09289 | -6.90253 | 35896 ft | 450 kts | 32° |
| 2026-04-28 13:44 | 35.14541 | -6.86085 | 35900 ft | 450 kts | 32° |
| 2026-04-28 13:44 | 35.19755 | -6.81939 | 35899 ft | 450 kts | 32° |
| 2026-04-28 13:45 | 35.25005 | -6.77758 | 35901 ft | 450 kts | 32° |
| 2026-04-28 13:45 | 35.30249 | -6.73578 | 35900 ft | 450 kts | 32° |
| 2026-04-28 13:46 | 35.35027 | -6.68673 | 35912 ft | 450 kts | 49° |
| 2026-04-28 13:46 | 35.38447 | -6.62283 | 35917 ft | 449 kts | 60° |
| 2026-04-28 13:47 | 35.41510 | -6.55611 | 35911 ft | 449 kts | 60° |
| 2026-04-28 13:47 | 35.44646 | -6.48984 | 35904 ft | 449 kts | 59° |
| 2026-04-28 13:48 | 35.47917 | -6.42449 | 35911 ft | 449 kts | 58° |
| 2026-04-28 13:48 | 35.51240 | -6.35963 | 35905 ft | 449 kts | 58° |
| 2026-04-28 13:49 | 35.54539 | -6.29474 | 35907 ft | 448 kts | 58° |
| 2026-04-28 13:49 | 35.57795 | -6.23023 | 35910 ft | 447 kts | 58° |
| 2026-04-28 13:50 | 35.61062 | -6.16535 | 35912 ft | 446 kts | 58° |
| 2026-04-28 13:50 | 35.64315 | -6.10053 | 35919 ft | 445 kts | 58° |
| 2026-04-28 13:51 | 35.67560 | -6.03580 | 35915 ft | 444 kts | 58° |
| 2026-04-28 13:51 | 35.70797 | -5.97116 | 35916 ft | 443 kts | 58° |
| 2026-04-28 13:52 | 35.73987 | -5.90624 | 35912 ft | 443 kts | 61° |
| 2026-04-28 13:52 | 35.76693 | -5.83811 | 35922 ft | 443 kts | 65° |
| 2026-04-28 13:53 | 35.79299 | -5.76935 | 35913 ft | 443 kts | 64° |
| 2026-04-28 13:53 | 35.81968 | -5.70095 | 35920 ft | 443 kts | 64° |
| 2026-04-28 13:54 | 35.84671 | -5.63263 | 35929 ft | 443 kts | 63° |
| 2026-04-28 13:54 | 35.87433 | -5.56470 | 35938 ft | 444 kts | 63° |
| 2026-04-28 13:55 | 35.90180 | -5.49709 | 35945 ft | 444 kts | 63° |
| 2026-04-28 13:55 | 35.92934 | -5.42883 | 35957 ft | 444 kts | 63° |
| 2026-04-28 13:56 | 35.95687 | -5.36052 | 35966 ft | 445 kts | 63° |
| 2026-04-28 13:56 | 35.98434 | -5.29206 | 35961 ft | 445 kts | 63° |
| 2026-04-28 13:57 | 36.01190 | -5.22362 | 35965 ft | 445 kts | 63° |
| 2026-04-28 13:57 | 36.04037 | -5.15561 | 35967 ft | 446 kts | 62° |
| 2026-04-28 13:58 | 36.06897 | -5.08770 | 35961 ft | 445 kts | 62° |
| 2026-04-28 13:58 | 36.09275 | -5.03078 | 35963 ft | 444 kts | 62° |
| 2026-04-28 13:59 | 36.12081 | -4.96333 | 35961 ft | 443 kts | 62° |
| 2026-04-28 13:59 | 36.14994 | -4.89634 | 35954 ft | 441 kts | 55° |
| 2026-04-28 14:00 | 36.19001 | -4.83927 | 35969 ft | 439 kts | 45° |
| 2026-04-28 14:00 | 36.23279 | -4.78539 | 35956 ft | 438 kts | 45° |
| 2026-04-28 14:01 | 36.27533 | -4.73140 | 35953 ft | 438 kts | 45° |
| 2026-04-28 14:01 | 36.31753 | -4.67713 | 35952 ft | 437 kts | 45° |
| 2026-04-28 14:02 | 36.35850 | -4.62413 | 35957 ft | 436 kts | 46° |
| 2026-04-28 14:02 | 36.40043 | -4.56974 | 35965 ft | 436 kts | 46° |
| 2026-04-28 14:03 | 36.44229 | -4.51537 | 35961 ft | 435 kts | 46° |
| 2026-04-28 14:03 | 36.48410 | -4.46099 | 35965 ft | 435 kts | 46° |
| 2026-04-28 14:04 | 36.52564 | -4.40686 | 35963 ft | 436 kts | 46° |
| 2026-04-28 14:04 | 36.56743 | -4.35229 | 35964 ft | 436 kts | 46° |
| 2026-04-28 14:05 | 36.60930 | -4.29756 | 35964 ft | 437 kts | 46° |
| 2026-04-28 14:05 | 36.65121 | -4.24269 | 35964 ft | 437 kts | 46° |
| 2026-04-28 14:06 | 36.69311 | -4.18774 | 35958 ft | 438 kts | 46° |
| 2026-04-28 14:06 | 36.73503 | -4.13264 | 35966 ft | 438 kts | 46° |
| 2026-04-28 14:07 | 36.77696 | -4.07746 | 35958 ft | 438 kts | 46° |
| 2026-04-28 14:07 | 36.81890 | -4.02217 | 35950 ft | 439 kts | 46° |
| 2026-04-28 14:08 | 36.86083 | -3.96678 | 35930 ft | 439 kts | 46° |
| 2026-04-28 14:08 | 36.90271 | -3.91137 | 35920 ft | 439 kts | 46° |
| 2026-04-28 14:09 | 36.94458 | -3.85586 | 35915 ft | 438 kts | 47° |
| 2026-04-28 14:09 | 36.98609 | -3.80076 | 35917 ft | 438 kts | 46° |
| 2026-04-28 14:10 | 37.02784 | -3.74524 | 35913 ft | 438 kts | 47° |
| 2026-04-28 14:10 | 37.06950 | -3.68974 | 35925 ft | 438 kts | 47° |
| 2026-04-28 14:11 | 37.11114 | -3.63419 | 35933 ft | 437 kts | 46° |
| 2026-04-28 14:11 | 37.15338 | -3.57940 | 35934 ft | 437 kts | 46° |
| 2026-04-28 14:12 | 37.19580 | -3.52479 | 35939 ft | 437 kts | 46° |
| 2026-04-28 14:12 | 37.23812 | -3.47002 | 35936 ft | 437 kts | 46° |
| 2026-04-28 14:13 | 37.28048 | -3.41514 | 35936 ft | 438 kts | 46° |
| 2026-04-28 14:13 | 37.32285 | -3.36009 | 35937 ft | 439 kts | 46° |
| 2026-04-28 14:14 | 37.36525 | -3.30488 | 35934 ft | 439 kts | 46° |
| 2026-04-28 14:14 | 37.40766 | -3.24961 | 35935 ft | 439 kts | 46° |
| 2026-04-28 14:15 | 37.45009 | -3.19425 | 35933 ft | 440 kts | 46° |
| 2026-04-28 14:15 | 37.49251 | -3.13877 | 35923 ft | 440 kts | 46° |
| 2026-04-28 14:16 | 37.53493 | -3.08318 | 35926 ft | 440 kts | 46° |
| 2026-04-28 14:16 | 37.57701 | -3.02797 | 35926 ft | 440 kts | 47° |
| 2026-04-28 14:17 | 37.61939 | -2.97238 | 35927 ft | 439 kts | 47° |
| 2026-04-28 14:17 | 37.66176 | -2.91678 | 35926 ft | 440 kts | 47° |
| 2026-04-28 14:18 | 37.70408 | -2.86113 | 35927 ft | 439 kts | 47° |
| 2026-04-28 14:18 | 37.74631 | -2.80550 | 35927 ft | 439 kts | 47° |
| 2026-04-28 14:19 | 37.78844 | -2.74980 | 35927 ft | 438 kts | 47° |
| 2026-04-28 14:19 | 37.83037 | -2.69412 | 35920 ft | 434 kts | 47° |
| 2026-04-28 14:20 | 37.87131 | -2.63968 | 35899 ft | 415 kts | 47° |
| 2026-04-28 14:20 | 37.89088 | -2.61363 | 35908 ft | 401 kts | 47° |
| 2026-04-28 14:20 | 37.90975 | -2.58849 | 35911 ft | 387 kts | 47° |
| 2026-04-28 14:21 | 37.94632 | -2.53968 | 35945 ft | 384 kts | 47° |
| 2026-04-28 14:21 | 37.98373 | -2.48983 | 35958 ft | 397 kts | 45° |
| 2026-04-28 14:22 | 38.02208 | -2.43863 | 35940 ft | 403 kts | 50° |
| 2026-04-28 14:22 | 38.06003 | -2.38657 | 35903 ft | 397 kts | 47° |
| 2026-04-28 14:23 | 38.09757 | -2.33732 | 35936 ft | 389 kts | 47° |
| 2026-04-28 14:23 | 38.13495 | -2.28732 | 35946 ft | 391 kts | 48° |
| 2026-04-28 14:24 | 38.17245 | -2.23690 | 35954 ft | 393 kts | 48° |
| 2026-04-28 14:24 | 38.21444 | -2.19219 | 35951 ft | 399 kts | 29° |
| 2026-04-28 14:25 | 38.23995 | -2.17819 | 35937 ft | 401 kts | 17° |
| 2026-04-28 14:25 | 38.26700 | -2.16938 | 35959 ft | 402 kts | 14° |
| 2026-04-28 14:25 | 38.32173 | -2.15361 | 35948 ft | 404 kts | 14° |
| 2026-04-28 14:26 | 38.37658 | -2.13737 | 35952 ft | 405 kts | 14° |
| 2026-04-28 14:26 | 38.43140 | -2.12060 | 35955 ft | 405 kts | 14° |
| 2026-04-28 14:27 | 38.48616 | -2.10365 | 35951 ft | 405 kts | 17° |
| 2026-04-28 14:27 | 38.51212 | -2.09018 | 35951 ft | 401 kts | 32° |
| 2026-04-28 14:27 | 38.53460 | -2.06951 | 35959 ft | 398 kts | 44° |
| 2026-04-28 14:28 | 38.56945 | -2.01587 | 35955 ft | 394 kts | 54° |
| 2026-04-28 14:28 | 38.60270 | -1.96027 | 35967 ft | 393 kts | 53° |
| 2026-04-28 14:29 | 38.63616 | -1.90501 | 35959 ft | 393 kts | 53° |
| 2026-04-28 14:29 | 38.66972 | -1.84996 | 35959 ft | 392 kts | 53° |
| 2026-04-28 14:30 | 38.70325 | -1.79493 | 35963 ft | 392 kts | 53° |
| 2026-04-28 14:30 | 38.73678 | -1.73977 | 35965 ft | 393 kts | 53° |
| 2026-04-28 14:31 | 38.77033 | -1.68446 | 35966 ft | 394 kts | 53° |
| 2026-04-28 14:31 | 38.80397 | -1.62892 | 35968 ft | 396 kts | 53° |
| 2026-04-28 14:32 | 38.83771 | -1.57305 | 35966 ft | 397 kts | 53° |
| 2026-04-28 14:32 | 38.87160 | -1.51688 | 35963 ft | 399 kts | 53° |
| 2026-04-28 14:33 | 38.90563 | -1.46040 | 35965 ft | 400 kts | 53° |
| 2026-04-28 14:33 | 38.93945 | -1.40412 | 35962 ft | 402 kts | 53° |
| 2026-04-28 14:34 | 38.99063 | -1.31880 | 35962 ft | 402 kts | 53° |
| 2026-04-28 14:35 | 39.02475 | -1.26179 | 35966 ft | 402 kts | 53° |
| 2026-04-28 14:35 | 39.05864 | -1.20510 | 35960 ft | 398 kts | 53° |
| 2026-04-28 14:36 | 39.09163 | -1.14979 | 35971 ft | 401 kts | 53° |
| 2026-04-28 14:36 | 39.12578 | -1.09244 | 35460 ft | 408 kts | 53° |
| 2026-04-28 14:36 | 39.14315 | -1.06320 | 34497 ft | 414 kts | 53° |
| 2026-04-28 14:37 | 39.16087 | -1.03326 | 33193 ft | 428 kts | 53° |
| 2026-04-28 14:37 | 39.17917 | -1.00223 | 31709 ft | 443 kts | 53° |
| 2026-04-28 14:37 | 39.19808 | -0.97004 | 30209 ft | 456 kts | 53° |
| 2026-04-28 14:37 | 39.21904 | -0.93855 | 28714 ft | 465 kts | 42° |
| 2026-04-28 14:38 | 39.24491 | -0.91356 | 27258 ft | 470 kts | 29° |
| 2026-04-28 14:38 | 39.27463 | -0.89571 | 25830 ft | 473 kts | 19° |
| 2026-04-28 14:38 | 39.30553 | -0.88109 | 24444 ft | 473 kts | 20° |
| 2026-04-28 14:38 | 39.33626 | -0.86595 | 23068 ft | 473 kts | 21° |
| 2026-04-28 14:39 | 39.36749 | -0.85332 | 21730 ft | 469 kts | 9° |
| 2026-04-28 14:39 | 39.39942 | -0.85174 | 20537 ft | 462 kts | 352° |
| 2026-04-28 14:39 | 39.42996 | -0.86190 | 19479 ft | 449 kts | 334° |
| 2026-04-28 14:39 | 39.45616 | -0.88244 | 18422 ft | 435 kts | 317° |
| 2026-04-28 14:40 | 39.47591 | -0.91120 | 17332 ft | 423 kts | 300° |
| 2026-04-28 14:40 | 39.48101 | -0.92220 | 16955 ft | 420 kts | 296° |
| 2026-04-28 14:40 | 39.49964 | -0.97872 | 15198 ft | 403 kts | 279° |
| 2026-04-28 14:40 | 39.50091 | -1.01434 | 14146 ft | 392 kts | 261° |
| 2026-04-28 14:41 | 39.49325 | -1.04748 | 13131 ft | 382 kts | 242° |
| 2026-04-28 14:41 | 39.47771 | -1.07483 | 12089 ft | 375 kts | 223° |
| 2026-04-28 14:41 | 39.45620 | -1.09330 | 11052 ft | 371 kts | 204° |
| 2026-04-28 14:41 | 39.43122 | -1.10103 | 9955 ft | 370 kts | 184° |
| 2026-04-28 14:42 | 39.40627 | -1.09812 | 9773 ft | 346 kts | 169° |
| 2026-04-28 14:42 | 39.38425 | -1.08908 | 9717 ft | 321 kts | 155° |
| 2026-04-28 14:42 | 39.36575 | -1.07419 | 9203 ft | 314 kts | 139° |
| 2026-04-28 14:42 | 39.35154 | -1.05345 | 8817 ft | 305 kts | 124° |
| 2026-04-28 14:43 | 39.34218 | -1.02940 | 8490 ft | 296 kts | 110° |
| 2026-04-28 14:43 | 39.33771 | -1.00391 | 8155 ft | 289 kts | 97° |
| 2026-04-28 14:43 | 39.33841 | -0.97840 | 7767 ft | 283 kts | 76° |
| 2026-04-28 14:43 | 39.34758 | -0.95634 | 7458 ft | 279 kts | 51° |
| 2026-04-28 14:44 | 39.36192 | -0.93952 | 7131 ft | 276 kts | 38° |
| 2026-04-28 14:44 | 39.37747 | -0.92525 | 6865 ft | 274 kts | 36° |
| 2026-04-28 14:44 | 39.39300 | -0.91152 | 6583 ft | 274 kts | 36° |
| 2026-04-28 14:44 | 39.40897 | -0.89739 | 6257 ft | 274 kts | 36° |
| 2026-04-28 14:45 | 39.42440 | -0.88357 | 5995 ft | 273 kts | 37° |
| 2026-04-28 14:45 | 39.43993 | -0.86957 | 5735 ft | 272 kts | 37° |
| 2026-04-28 14:45 | 39.45563 | -0.85539 | 5472 ft | 272 kts | 37° |
| 2026-04-28 14:45 | 39.46586 | -0.84609 | 5286 ft | 270 kts | 37° |
| 2026-04-28 14:46 | 39.48600 | -0.82768 | 5029 ft | 268 kts | 38° |
| 2026-04-28 14:46 | 39.50110 | -0.81375 | 4835 ft | 264 kts | 37° |
| 2026-04-28 14:46 | 39.51596 | -0.80020 | 4643 ft | 260 kts | 36° |
| 2026-04-28 14:46 | 39.53073 | -0.78670 | 4459 ft | 259 kts | 36° |
| 2026-04-28 14:47 | 39.54539 | -0.77333 | 4324 ft | 257 kts | 37° |
| 2026-04-28 14:47 | 39.55998 | -0.75993 | 4176 ft | 255 kts | 37° |
| 2026-04-28 14:47 | 39.57327 | -0.74502 | 4058 ft | 253 kts | 58° |
| 2026-04-28 14:47 | 39.57837 | -0.72391 | 3925 ft | 248 kts | 93° |
| 2026-04-28 14:48 | 39.57402 | -0.70245 | 3652 ft | 247 kts | 114° |
| 2026-04-28 14:48 | 39.56643 | -0.68290 | 3316 ft | 239 kts | 118° |
| 2026-04-28 14:48 | 39.55885 | -0.66400 | 2995 ft | 233 kts | 117° |
| 2026-04-28 14:48 | 39.55181 | -0.64556 | 2698 ft | 224 kts | 116° |
| 2026-04-28 14:49 | 39.54503 | -0.62781 | 2380 ft | 216 kts | 116° |
| 2026-04-28 14:49 | 39.53858 | -0.61094 | 2117 ft | 204 kts | 115° |
| 2026-04-28 14:49 | 39.53242 | -0.59481 | 1879 ft | 196 kts | 115° |
| 2026-04-28 14:49 | 39.52657 | -0.57938 | 1620 ft | 183 kts | 115° |
| 2026-04-28 14:50 | 39.52119 | -0.56538 | 1380 ft | 166 kts | 115° |
| 2026-04-28 14:50 | 39.51627 | -0.55253 | 1175 ft | 147 kts | 114° |
| 2026-04-28 14:50 | 39.51339 | -0.54494 | 1057 ft | 139 kts | 114° |
| 2026-04-28 14:50 | 39.50784 | -0.53030 | 821 ft | 135 kts | 115° |
| 2026-04-28 14:51 | 39.50501 | -0.52297 | 694 ft | 134 kts | 115° |
| 2026-04-28 14:51 | 39.49949 | -0.50834 | 414 ft | 138 kts | 115° |
| 2026-04-28 14:51 | 39.49529 | -0.49729 | 244 ft | 135 kts | 115° |
| 2026-04-28 14:51 | 39.49156 | -0.48752 | 218 ft | 99 kts | 116° |
| 2026-04-28 14:52 | 39.49001 | -0.48344 | 208 ft | 47 kts | 115° |
| 2026-04-28 14:52 | 39.48988 | -0.48069 | 203 ft | 29 kts | 78° |
| 2026-04-28 14:52 | 39.49016 | -0.47905 | 209 ft | 16 kts | 77° |
| 2026-04-28 14:52 | 39.49040 | -0.47797 | 206 ft | 7 kts | 47° |
| 2026-04-28 14:53 | 39.49079 | -0.47767 | 210 ft | 7 kts | 28° |
| 2026-04-28 14:53 | 39.49135 | -0.47725 | 206 ft | 12 kts | 44° |
| 2026-04-28 14:53 | 39.49152 | -0.47685 | 197 ft | 3 kts | 67° |
| 2026-04-28 14:54 | 39.49169 | -0.47635 | 200 ft | 6 kts | 66° |
| 2026-04-28 14:54 | 39.49172 | -0.47626 | 195 ft | 0 kts | 66° |
| 2026-04-28 14:55 | 39.50091 | -0.51201 | 487 ft | 157 kts | 115° |
| 2026-04-28 14:55 | 39.49189 | -0.48836 | 219 ft | 106 kts | 116° |
| 2026-04-28 14:56 | 39.49472 | -0.49580 | 235 ft | 126 kts | 115° |
| 2026-04-28 14:56 | 39.49629 | -0.49993 | 276 ft | 136 kts | 115° |
| 2026-04-28 14:56 | 39.49278 | -0.49069 | 223 ft | 117 kts | 116° |
| 2026-04-28 14:56 | 39.49489 | -0.49625 | 237 ft | 123 kts | 115° |
| 2026-04-28 14:57 | 39.49035 | -0.48432 | 212 ft | 66 kts | 116° |
| 2026-04-28 14:57 | 39.49417 | -0.49433 | 229 ft | 126 kts | 115° |
| 2026-04-28 14:58 | 39.49405 | -0.49404 | 227 ft | 128 kts | 115° |
| 2026-04-28 14:58 | 39.49330 | -0.49204 | 222 ft | 115 kts | 116° |
| 2026-04-28 14:59 | 39.49326 | -0.49195 | 222 ft | 101 kts | 116° |
| 2026-04-28 15:22 | 39.49590 | -0.49891 | 262 ft | 136 kts | 115° |
| 2026-04-28 15:22 | 39.49588 | -0.49885 | 261 ft | 120 kts | 115° |
| 2026-04-28 15:22 | 39.49398 | -0.49385 | 227 ft | 127 kts | 115° |
| 2026-04-28 15:22 | 39.49198 | -0.48859 | 218 ft | 107 kts | 116° |
| 2026-04-28 15:23 | 39.49065 | -0.48512 | 213 ft | 80 kts | 116° |
| 2026-04-28 15:23 | 39.49760 | -0.50337 | 328 ft | 137 kts | 115° |
| 2026-04-28 15:23 | 39.49818 | -0.50489 | 358 ft | 137 kts | 115° |
| 2026-04-28 15:23 | 39.49382 | -0.49341 | 225 ft | 126 kts | 116° |
| 2026-04-28 15:24 | 39.49045 | -0.48452 | 212 ft | 98 kts | 115° |
| 2026-04-28 15:24 | 39.49172 | -0.47626 | 195 ft | 0 kts | 66° |